createdAt,value
2023-01-09T05:33:27.620Z,97872.81
2023-01-09T05:35:54.874Z,97876.54
2023-01-09T05:38:25.000Z,97881.66
2023-01-09T05:40:52.136Z,97884.85
2023-01-09T05:43:19.083Z,97879.19
2023-01-09T05:45:46.293Z,97882.48
2023-01-09T05:48:13.588Z,97875.85
2023-01-09T05:50:40.572Z,97863.27
2023-01-09T05:53:07.478Z,97867.12
2023-01-09T05:55:34.450Z,97861.88
2023-01-09T05:58:01.467Z,97858.72
2023-01-09T06:00:28.509Z,97862.33
2023-01-09T06:02:55.492Z,97856.86
2023-01-09T06:05:22.435Z,97860.42
2023-01-09T06:07:51.912Z,97858.34
2023-01-09T06:10:19.059Z,97846.63
2023-01-09T06:12:50.743Z,97845.16
2023-01-09T06:15:18.077Z,97860.11
2023-01-09T06:17:45.210Z,97870.08
2023-01-09T06:20:12.283Z,97861.20
2023-01-09T06:22:45.465Z,97861.55
2023-01-09T06:25:12.912Z,97863.27
2023-01-09T06:27:39.891Z,97863.89
2023-01-09T06:30:08.035Z,97872.06
2023-01-09T06:32:37.332Z,97866.18
2023-01-09T06:35:05.429Z,97862.48
2023-01-09T06:37:33.581Z,97857.91
2023-01-09T06:40:00.553Z,97855.50
2023-01-09T06:42:27.563Z,97856.77
2023-01-09T06:44:54.719Z,97853.82
2023-01-09T06:47:21.760Z,97858.48
2023-01-09T06:49:51.271Z,97866.64
2023-01-09T06:52:18.222Z,97867.30
2023-01-09T06:54:45.264Z,97860.88
2023-01-09T06:57:12.515Z,97856.90
2023-01-09T06:59:39.410Z,97855.95
2023-01-09T07:02:06.378Z,97852.36
2023-01-09T07:04:39.701Z,97852.69
2023-01-09T07:07:06.569Z,97849.96
2023-01-09T07:09:33.583Z,97854.06
2023-01-09T07:12:03.026Z,97854.23
2023-01-09T07:14:30.298Z,97847.27
2023-01-09T07:16:57.219Z,97846.35
2023-01-09T07:19:24.231Z,97850.11
2023-01-09T07:21:51.143Z,97849.02
2023-01-09T07:24:18.032Z,97850.83
2023-01-09T07:26:44.942Z,97844.88
2023-01-09T07:29:13.134Z,97839.78
2023-01-09T07:31:42.999Z,97845.30
2023-01-09T07:34:09.812Z,97844.86
2023-01-09T07:36:36.769Z,97839.55
2023-01-09T07:39:06.015Z,97832.61
2023-01-09T07:41:32.909Z,97827.13
2023-01-09T07:44:02.595Z,97828.27
2023-01-09T07:46:29.890Z,97832.58
2023-01-09T07:48:58.306Z,97829.65
2023-01-09T07:51:25.270Z,97830.01
2023-01-09T07:53:52.840Z,97831.76
2023-01-09T07:56:19.857Z,97827.46
2023-01-09T07:58:46.877Z,97824.74
2023-01-09T08:01:13.787Z,97824.36
2023-01-09T08:03:40.734Z,97821.14
2023-01-09T08:06:07.751Z,97824.59
2023-01-09T08:08:34.608Z,97827.05
2023-01-09T08:11:04.044Z,97823.81
2023-01-09T08:13:30.955Z,97826.66
2023-01-09T08:15:57.862Z,97822.86
2023-01-09T08:18:24.682Z,97818.18
2023-01-09T08:20:51.895Z,97819.16
2023-01-09T08:23:18.812Z,97811.35
2023-01-09T08:25:45.727Z,97808.06
2023-01-09T08:28:17.180Z,97808.15
2023-01-09T08:30:46.586Z,97802.09
2023-01-09T08:33:13.509Z,97805.82
2023-01-09T08:35:40.397Z,97806.70
2023-01-09T08:38:07.195Z,97804.48
2023-01-09T08:40:34.096Z,97793.30
2023-01-09T08:43:19.712Z,97789.19
2023-01-09T08:46:05.803Z,97788.97
2023-01-09T08:48:32.730Z,97789.88
2023-01-09T08:50:59.588Z,97789.70
2023-01-09T08:53:26.480Z,97785.74
2023-01-09T08:55:57.537Z,97782.24
2023-01-09T08:58:24.349Z,97778.18
2023-01-09T09:00:51.321Z,97777.69
2023-01-09T09:03:23.075Z,97774.41
2023-01-09T09:05:49.979Z,97772.80
2023-01-09T09:08:16.906Z,97771.73
2023-01-09T09:10:43.819Z,97758.46
2023-01-09T09:13:13.173Z,97757.96
2023-01-09T09:15:40.138Z,97749.95
2023-01-09T09:18:07.395Z,97742.73
2023-01-09T09:20:35.832Z,97744.52
2023-01-09T09:23:02.813Z,97747.44
2023-01-09T09:25:30.608Z,97743.10
2023-01-09T09:27:57.943Z,97735.02
2023-01-09T09:30:24.901Z,97731.05
2023-01-09T09:32:51.773Z,97724.33
2023-01-09T09:35:19.293Z,97724.55
2023-01-09T09:37:59.884Z,97723.16
2023-01-09T09:40:55.071Z,97723.13
2023-01-09T09:43:56.204Z,97717.61
2023-01-09T09:46:38.365Z,97719.80
2023-01-09T09:49:27.014Z,97712.80
2023-01-09T09:52:20.622Z,97705.64
2023-01-09T09:54:49.104Z,97701.97
2023-01-09T09:57:18.654Z,97698.69
2023-01-09T09:59:45.646Z,97699.26
2023-01-09T10:02:19.920Z,97694.81
2023-01-09T10:04:49.900Z,97699.88
2023-01-09T10:07:33.171Z,97698.64
2023-01-09T10:10:05.836Z,97688.99
2023-01-09T10:12:35.994Z,97685.28
2023-01-09T10:15:09.890Z,97682.64
2023-01-09T10:17:48.361Z,97673.27
2023-01-09T10:20:37.667Z,97664.41
2023-01-09T10:23:22.690Z,97667.57
2023-01-09T10:25:52.738Z,97668.60
2023-01-09T10:28:25.559Z,97667.08
2023-01-09T10:31:06.686Z,97667.66
2023-01-09T10:34:23.446Z,97656.38
2023-01-09T10:37:01.612Z,97647.45
2023-01-09T10:39:59.333Z,97639.88
2023-01-09T10:42:47.489Z,97635.74
2023-01-09T10:45:22.313Z,97636.52
2023-01-09T10:47:49.312Z,97639.90
2023-01-09T10:50:24.216Z,97635.94
2023-01-09T10:52:52.287Z,97631.09
2023-01-09T10:56:01.008Z,97631.75
2023-01-09T10:58:30.449Z,97632.11
2023-01-09T11:01:01.535Z,97631.97
2023-01-09T11:03:28.781Z,97632.13
2023-01-09T11:05:58.353Z,97625.92
2023-01-09T11:08:40.258Z,97622.88
2023-01-09T11:11:09.621Z,97627.33
2023-01-09T11:13:38.543Z,97626.99
2023-01-09T11:16:06.893Z,97626.13
2023-01-09T11:18:34.410Z,97623.81
2023-01-09T11:21:24.987Z,97624.56
2023-01-09T11:23:51.822Z,97620.65
2023-01-09T11:26:28.056Z,97621.17
2023-01-09T11:29:13.968Z,97613.49
2023-01-09T11:31:41.762Z,97609.23
2023-01-09T11:34:18.183Z,97608.61
2023-01-09T11:36:45.595Z,97608.84
2023-01-09T11:39:26.003Z,97608.02
2023-01-09T11:41:56.194Z,97608.26
2023-01-09T11:44:23.088Z,97607.80
2023-01-09T11:46:50.082Z,97603.81
2023-01-09T11:49:25.155Z,97599.55
2023-01-09T11:52:17.841Z,97601.80
2023-01-09T11:55:03.317Z,97592.63
2023-01-09T11:57:30.212Z,97584.11
2023-01-09T12:00:01.362Z,97580.81
2023-01-09T12:03:05.785Z,97585.87
2023-01-09T12:05:43.787Z,97582.19
2023-01-09T12:08:29.486Z,97577.70
2023-01-09T12:11:23.813Z,97576.38
2023-01-09T12:14:19.962Z,97578.65
2023-01-09T12:17:05.729Z,97573.91
2023-01-09T12:19:58.549Z,97571.73
2023-01-09T12:22:34.620Z,97563.52
2023-01-09T12:25:39.369Z,97563.19
2023-01-09T12:28:15.717Z,97562.11
2023-01-09T12:31:06.931Z,97563.66
2023-01-09T12:33:52.600Z,97564.31
2023-01-09T12:36:33.229Z,97561.63
2023-01-09T12:39:38.369Z,97562.27
2023-01-09T12:42:14.464Z,97551.33
2023-01-09T12:44:51.932Z,97554.76
2023-01-09T12:47:18.821Z,97555.08
2023-01-09T12:50:10.529Z,97549.00
2023-01-09T12:52:59.380Z,97557.10
2023-01-09T12:55:26.566Z,97562.66
2023-01-09T12:57:58.336Z,97562.77
2023-01-09T13:00:30.551Z,97560.94
2023-01-09T15:24:30.532Z,97532.15
2023-01-09T15:27:15.819Z,97529.42
2023-01-09T15:29:43.781Z,97528.29
2023-01-09T15:32:27.975Z,97528.34
2023-01-09T15:34:55.593Z,97532.33
2023-01-09T15:37:38.839Z,97529.39
2023-01-09T15:40:07.739Z,97535.31
2023-01-09T15:42:58.593Z,97538.38
2023-01-09T15:45:50.158Z,97544.94
2023-01-09T15:48:32.661Z,97537.88
2023-01-09T15:51:18.840Z,97534.83
2023-01-09T15:53:46.707Z,97536.96
2023-01-09T15:56:17.048Z,97530.47
2023-01-09T15:58:47.366Z,97523.30
2023-01-09T16:01:35.545Z,97520.09
2023-01-09T16:04:17.191Z,97520.27
2023-01-09T16:06:47.134Z,97518.74
2023-01-09T16:09:17.344Z,97507.10
2023-01-09T16:11:54.005Z,97500.24
2023-01-09T16:14:24.103Z,97488.57
2023-01-09T16:16:53.480Z,97492.89
2023-01-09T16:19:54.379Z,97492.69
2023-01-09T16:22:35.203Z,97493.57
2023-01-09T16:25:04.026Z,97485.83
2023-01-09T16:27:36.607Z,97484.85
2023-01-09T16:30:08.490Z,97492.81
2023-01-09T16:32:36.931Z,97492.04
2023-01-09T16:35:13.105Z,97483.39
2023-01-09T16:37:40.282Z,97477.62
2023-01-09T16:40:22.445Z,97473.15
2023-01-09T16:43:05.539Z,97473.21
2023-01-09T16:45:33.328Z,97474.88
2023-01-09T16:48:09.550Z,97471.64
2023-01-09T16:50:36.821Z,97471.98
2023-01-09T16:53:11.273Z,97468.36
2023-01-09T16:55:38.288Z,97469.11
2023-01-09T16:58:05.236Z,97472.69
2023-01-09T17:00:32.187Z,97472.48
2023-01-09T17:03:00.856Z,97469.32
2023-01-09T17:05:27.799Z,97466.71
2023-01-09T17:07:57.793Z,97468.76
2023-01-09T17:10:25.112Z,97470.17
2023-01-09T17:12:52.017Z,97469.96
2023-01-09T17:15:21.215Z,97476.50
2023-01-09T17:17:48.488Z,97476.81
2023-01-09T17:20:17.407Z,97482.39
2023-01-09T17:22:44.253Z,97479.65
2023-01-09T17:25:36.852Z,97483.77
2023-01-09T17:28:25.761Z,97477.92
2023-01-09T17:31:09.435Z,97473.30
2023-01-09T17:33:36.588Z,97473.19
2023-01-09T17:36:04.484Z,97477.47
2023-01-09T17:38:31.458Z,97470.38
2023-01-09T17:41:03.578Z,97460.27
2023-01-09T17:43:32.899Z,97455.05
2023-01-09T17:46:00.325Z,97449.84
2023-01-09T17:48:27.407Z,97451.30
2023-01-09T17:50:54.413Z,97453.91
2023-01-09T17:53:22.780Z,97457.81
2023-01-09T17:55:49.619Z,97451.53
2023-01-09T17:58:24.936Z,97448.34
2023-01-09T18:00:52.200Z,97439.02
2023-01-09T18:03:23.337Z,97430.31
2023-01-09T18:05:50.330Z,97426.83
2023-01-09T18:08:17.193Z,97423.59
2023-01-09T18:10:48.384Z,97416.55
2023-01-09T18:13:19.140Z,97416.10
2023-01-09T18:15:48.326Z,97416.98
2023-01-09T18:18:17.660Z,97410.05
2023-01-09T18:20:45.214Z,97406.02
2023-01-09T18:23:12.599Z,97407.23
2023-01-09T18:25:42.959Z,97404.14
2023-01-09T18:28:15.346Z,97408.44
2023-01-09T18:30:45.635Z,97410.02
2023-01-09T18:33:12.646Z,97407.98
2023-01-09T18:35:41.990Z,97408.70
2023-01-09T18:38:09.110Z,97411.33
2023-01-09T18:40:37.113Z,97408.68
2023-01-09T18:43:08.064Z,97402.52
2023-01-09T18:45:40.153Z,97395.14
2023-01-09T18:48:07.932Z,97398.02
2023-01-09T18:50:34.823Z,97394.02
2023-01-09T18:53:02.167Z,97394.81
2023-01-09T18:55:29.060Z,97398.73
2023-01-09T18:57:56.373Z,97393.20
2023-01-09T19:00:23.356Z,97392.04
2023-01-09T19:02:50.281Z,97389.67
2023-01-09T19:05:20.454Z,97387.14
2023-01-09T19:07:50.134Z,97385.25
2023-01-09T19:10:17.345Z,97382.93
2023-01-09T19:12:44.257Z,97380.90
2023-01-09T19:15:11.765Z,97379.73
2023-01-09T19:17:39.152Z,97383.53
2023-01-09T19:20:06.732Z,97379.76
2023-01-09T19:22:33.845Z,97389.73
2023-01-09T19:25:00.847Z,97398.77
2023-01-09T19:27:30.957Z,97406.42
2023-01-09T19:29:57.885Z,97405.42
2023-01-09T19:32:27.017Z,97410.14
2023-01-09T19:34:54.900Z,97408.02
2023-01-09T19:37:21.951Z,97401.92
2023-01-09T19:39:48.963Z,97397.38
2023-01-09T19:42:16.539Z,97393.55
2023-01-09T19:44:43.468Z,97387.78
2023-01-09T19:47:12.112Z,97390.55
2023-01-09T19:49:42.359Z,97390.59
2023-01-09T19:52:09.556Z,97388.98
2023-01-09T19:54:36.985Z,97396.73
2023-01-09T19:57:10.811Z,97395.37
2023-01-09T19:59:40.052Z,97395.36
2023-01-09T20:02:11.876Z,97398.11
2023-01-09T20:04:41.995Z,97403.77
2023-01-09T20:07:08.939Z,97399.67
2023-01-09T20:09:38.796Z,97393.92
2023-01-09T20:12:05.997Z,97387.86
2023-01-09T20:14:32.823Z,97379.38
2023-01-09T20:17:04.298Z,97373.06
2023-01-09T20:19:33.557Z,97368.51
2023-01-09T20:22:01.981Z,97364.89
2023-01-09T20:24:28.856Z,97368.66
2023-01-09T20:26:55.798Z,97375.23
2023-01-09T20:29:23.736Z,97381.09
2023-01-09T20:31:50.701Z,97373.30
2023-01-09T20:34:17.672Z,97373.61
2023-01-09T20:36:45.160Z,97373.24
2023-01-09T20:39:12.488Z,97371.90
2023-01-09T20:41:39.857Z,97368.68
2023-01-09T20:44:12.914Z,97365.64
2023-01-09T20:46:44.798Z,97361.75
2023-01-09T20:49:12.710Z,97360.52
2023-01-09T20:51:47.609Z,97370.25
2023-01-09T20:54:15.136Z,97379.44
2023-01-09T20:56:45.018Z,97375.86
2023-01-09T20:59:17.371Z,97379.38
2023-01-09T21:01:44.435Z,97384.57
2023-01-09T21:04:11.319Z,97381.55
2023-01-09T21:06:38.561Z,97382.67
2023-01-09T21:09:05.572Z,97378.16
2023-01-09T21:11:35.344Z,97378.08
2023-01-09T21:14:02.246Z,97382.20
2023-01-09T21:16:29.602Z,97390.60
2023-01-09T21:18:56.581Z,97387.52
2023-01-09T21:21:28.652Z,97385.50
2023-01-09T21:23:57.114Z,97388.93
2023-01-09T21:26:27.464Z,97386.39
2023-01-09T21:28:55.477Z,97382.39
2023-01-09T21:31:28.802Z,97382.72
2023-01-09T21:33:55.730Z,97385.45
2023-01-09T21:36:22.708Z,97387.02
2023-01-09T21:38:52.209Z,97396.65
2023-01-09T21:41:40.167Z,97393.56
2023-01-09T21:44:27.379Z,97385.73
2023-01-09T21:46:57.757Z,97389.15
2023-01-09T21:49:25.811Z,97396.27
2023-01-09T21:51:55.127Z,97409.92
2023-01-09T21:54:23.361Z,97415.93
2023-01-09T21:56:51.259Z,97408.80
2023-01-09T21:59:18.510Z,97403.15
2023-01-09T22:01:48.618Z,97397.17
2023-01-09T22:04:16.070Z,97390.91
2023-01-09T22:06:43.114Z,97385.08
2023-01-09T22:09:10.303Z,97390.77
2023-01-09T22:11:38.210Z,97396.91
2023-01-09T22:14:05.168Z,97408.10
2023-01-09T22:16:32.220Z,97407.36
2023-01-09T22:18:59.122Z,97402.13
2023-01-09T23:21:04.481Z,97365.38
2023-01-09T23:23:32.404Z,97356.76
2023-01-09T23:26:02.273Z,97353.64
2023-01-09T23:28:30.715Z,97352.74
2023-01-09T23:30:57.880Z,97346.48
2023-01-09T23:33:25.003Z,97348.45
2023-01-09T23:35:52.146Z,97351.36
2023-01-09T23:38:19.105Z,97347.29
2023-01-09T23:40:46.144Z,97348.83
2023-01-09T23:43:14.045Z,97354.40
2023-01-09T23:45:45.226Z,97350.67
2023-01-09T23:48:13.818Z,97349.77
2023-01-09T23:50:51.705Z,97344.38
2023-01-09T23:53:19.248Z,97343.20
2023-01-09T23:55:46.353Z,97342.42
2023-01-09T23:58:13.591Z,97336.16
